createdAt,value
2019-03-27T00:00:04.083Z,1031.50
2019-03-27T00:10:03.401Z,1031.47
2019-03-27T00:20:03.564Z,1031.50
2019-03-27T00:30:03.954Z,1031.45
2019-03-27T00:40:03.779Z,1031.53
2019-03-27T00:50:03.273Z,1031.59
2019-03-27T01:00:04.869Z,1031.59
2019-03-27T01:10:03.348Z,1031.50
2019-03-27T01:20:03.287Z,1031.47
2019-03-27T01:30:04.336Z,1031.44
2019-03-27T01:40:03.834Z,1031.38
2019-03-27T01:50:03.373Z,1031.45
2019-03-27T02:00:04.556Z,1031.44
2019-03-27T02:10:03.214Z,1031.53
2019-03-27T02:20:03.423Z,1031.51
2019-03-27T02:30:04.185Z,1031.52
2019-03-27T02:40:03.804Z,1031.57
2019-03-27T02:50:03.371Z,1031.56
2019-03-27T03:00:04.527Z,1031.60
2019-03-27T03:10:03.357Z,1031.55
2019-03-27T03:20:03.582Z,1031.48
2019-03-27T03:30:04.622Z,1031.47
2019-03-27T03:40:03.032Z,1031.53
2019-03-27T03:50:02.939Z,1031.60
2019-03-27T04:00:04.280Z,1031.64
2019-03-27T04:10:03.478Z,1031.63
2019-03-27T04:20:03.656Z,1031.77
2019-03-27T04:30:04.192Z,1031.72
2019-03-27T04:40:02.901Z,1031.70
2019-03-27T04:50:03.648Z,1031.75
2019-03-27T05:00:03.739Z,1031.85
2019-03-27T05:10:03.280Z,1031.90
2019-03-27T05:20:03.057Z,1032.00
2019-03-27T05:30:04.557Z,1032.11
2019-03-27T05:40:03.307Z,1032.16
2019-03-27T05:50:02.997Z,1032.18
2019-03-27T06:00:03.945Z,1032.17
2019-03-27T06:10:03.508Z,1032.38
2019-03-27T06:20:03.817Z,1032.43
2019-03-27T06:30:04.158Z,1032.49
2019-03-27T06:40:03.518Z,1032.56
2019-03-27T06:50:03.634Z,1032.63
2019-03-27T07:00:04.601Z,1032.59
2019-03-27T07:10:03.290Z,1032.74
2019-03-27T07:20:03.265Z,1032.74
2019-03-27T07:30:04.462Z,1032.90
2019-03-27T07:40:03.559Z,1032.99
2019-03-27T07:50:03.084Z,1032.95
2019-03-27T08:00:05.005Z,1032.94
2019-03-27T08:10:04.007Z,1032.93
2019-03-27T08:20:02.929Z,1033.02
2019-03-27T08:30:04.490Z,1033.05
2019-03-27T08:40:03.371Z,1033.06
2019-03-27T08:50:03.111Z,1033.18
2019-03-27T09:00:04.181Z,1033.31
2019-03-27T09:10:02.800Z,1033.32
2019-03-27T09:20:03.586Z,1033.39
2019-03-27T09:30:04.048Z,1033.30
2019-03-27T09:40:03.726Z,1033.32
2019-03-27T09:50:03.177Z,1033.30
2019-03-27T10:00:04.231Z,1033.35
2019-03-27T10:10:03.754Z,1033.39
2019-03-27T10:20:05.392Z,1033.43
2019-03-27T10:30:04.501Z,1033.50
2019-03-27T10:40:03.386Z,1033.52
2019-03-27T10:50:18.132Z,1033.51
2019-03-27T11:00:04.145Z,1033.43
2019-03-27T11:10:03.742Z,1033.49
2019-03-27T11:20:03.833Z,1033.56
2019-03-27T11:30:04.520Z,1033.49
2019-03-27T11:40:03.300Z,1033.43
2019-03-27T11:50:02.887Z,1033.36
2019-03-27T12:00:04.195Z,1033.29
2019-03-27T12:10:03.847Z,1033.38
2019-03-27T12:20:04.199Z,1033.31
2019-03-27T12:30:04.476Z,1033.26
2019-03-27T12:40:12.565Z,1033.14
2019-03-27T12:50:03.224Z,1032.98
2019-03-27T13:00:04.438Z,1033.00
2019-03-27T13:10:03.987Z,1032.94
2019-03-27T13:20:04.025Z,1032.96
2019-03-27T13:30:03.622Z,1032.81
2019-03-27T13:40:03.639Z,1032.96
2019-03-27T13:50:03.375Z,1032.91
2019-03-27T14:00:06.401Z,1032.88
2019-03-27T14:10:07.055Z,1032.88
2019-03-27T14:20:04.009Z,1032.87
2019-03-27T14:30:03.800Z,1032.93
2019-03-27T14:40:03.540Z,1032.91
2019-03-27T14:50:03.100Z,1032.96
2019-03-27T15:00:04.548Z,1032.88
2019-03-27T15:10:03.663Z,1032.81
2019-03-27T15:20:03.850Z,1032.78
2019-03-27T15:30:04.128Z,1032.81
2019-03-27T15:40:02.886Z,1032.81
2019-03-27T15:50:03.713Z,1032.80
2019-03-27T16:00:03.884Z,1032.81
2019-03-27T16:10:03.690Z,1032.84
2019-03-27T16:20:03.817Z,1032.93
2019-03-27T16:30:04.395Z,1032.94
2019-03-27T16:40:03.238Z,1032.93
2019-03-27T16:50:03.657Z,1032.99
2019-03-27T17:00:03.850Z,1033.03
2019-03-27T17:10:03.732Z,1033.14
2019-03-27T17:20:03.611Z,1033.26
2019-03-27T17:30:04.036Z,1033.34
2019-03-27T17:40:03.017Z,1033.45
2019-03-27T17:50:03.641Z,1033.52
2019-03-27T18:00:04.559Z,1033.61
2019-03-27T18:10:03.185Z,1033.62
2019-03-27T18:20:03.256Z,1033.73
2019-03-27T18:30:03.402Z,1033.79
2019-03-27T18:40:03.431Z,1033.90
2019-03-27T18:50:03.293Z,1034.03
2019-03-27T19:00:04.286Z,1034.09
2019-03-27T19:10:02.939Z,1034.15
2019-03-27T19:20:03.655Z,1034.19
2019-03-27T19:30:04.266Z,1034.22
2019-03-27T19:40:03.039Z,1034.22
2019-03-27T19:50:03.462Z,1034.30
2019-03-27T20:00:03.681Z,1034.32
2019-03-27T20:10:03.360Z,1034.43
2019-03-27T20:20:03.419Z,1034.53
2019-03-27T20:30:03.856Z,1034.52
2019-03-27T20:40:03.740Z,1034.58
2019-03-27T20:50:03.346Z,1034.58
2019-03-27T21:00:04.281Z,1034.54
2019-03-27T21:10:04.224Z,1034.48
2019-03-27T21:20:03.491Z,1034.48
2019-03-27T21:30:04.125Z,1034.46
2019-03-27T21:40:03.692Z,1034.53
2019-03-27T21:50:03.454Z,1034.62
2019-03-27T22:00:04.057Z,1034.58
2019-03-27T22:10:03.436Z,1034.60
2019-03-27T22:20:03.676Z,1034.64
2019-03-27T22:30:03.598Z,1034.70
2019-03-27T22:40:03.513Z,1034.69
2019-03-27T22:50:03.399Z,1034.74
2019-03-27T23:00:04.734Z,1034.71
2019-03-27T23:10:03.052Z,1034.70
2019-03-27T23:20:02.955Z,1034.65
2019-03-27T23:30:03.586Z,1034.68
2019-03-27T23:40:03.879Z,1034.62
2019-03-27T23:50:03.714Z,1034.60
